Time;durP1;ratioP1;P1;durP2;ratioP2;P2;SDS_P1;SDS_P2;PMS_P1;PMS_P2;Temp;Humidity;BMP_temperature;BMP_pressure;BME280_temperature;BME280_humidity;BME280_pressure;Samples;Min_cycle;Max_cycle;Signal;HPM_P1;HPM_P2
2022/01/14 00:00:55;;;;;;;66.80;28.95;;;;;;;-4.39;74.47;99076.64;1760893;81;21512;-77
2022/01/14 00:03:21;;;;;;;68.22;28.62;;;;;;;-4.43;74.40;99077.73;1761024;81;21016;-76
2022/01/14 00:05:48;;;;;;;65.62;27.45;;;;;;;-4.49;74.68;99066.66;1782204;80;21363;-76
2022/01/14 00:08:15;;;;;;;67.42;27.48;;;;;;;-4.54;74.90;99071.63;1761198;80;21433;-76
2022/01/14 00:10:48;;;;;;;70.12;28.70;;;;;;;-4.56;74.93;99059.44;1760800;81;21028;-76
2022/01/14 00:13:36;;;;;;;66.60;27.15;;;;;;;-4.55;75.01;99062.50;1760816;80;21110;-76
2022/01/14 00:15:38;;;;;;;63.70;27.77;;;;;;;-4.54;74.57;99043.17;1761203;81;20999;-76
2022/01/14 00:18:04;;;;;;;64.67;26.60;;;;;;;-4.46;74.75;99049.11;1767610;81;21043;-76
2022/01/14 00:20:31;;;;;;;72.62;28.47;;;;;;;-4.46;74.64;99038.36;1768479;81;21206;-76
2022/01/14 00:22:59;;;;;;;67.45;27.20;;;;;;;-4.47;74.84;99037.89;1768505;81;21485;-76
2022/01/14 00:33:30;;;;;;;72.25;30.27;;;;;;;-4.60;75.40;99066.56;1764660;80;21414;-76
2022/01/14 00:35:56;;;;;;;66.87;27.82;;;;;;;-4.60;75.25;99071.73;1737258;82;21031;-76
2022/01/14 00:38:23;;;;;;;71.62;29.40;;;;;;;-4.63;75.78;99058.25;1769301;81;21031;-76
2022/01/14 00:40:49;;;;;;;71.95;29.37;;;;;;;-4.72;76.13;99066.46;1733051;82;21466;-76
2022/01/14 00:43:16;;;;;;;75.28;31.05;;;;;;;-4.73;76.01;99045.30;1733146;82;21055;-76
2022/01/14 00:45:43;;;;;;;72.17;29.90;;;;;;;-4.78;75.88;99046.34;1733231;83;20996;-76
2022/01/14 00:48:09;;;;;;;87.85;32.93;;;;;;;-4.82;76.66;99044.84;1747629;82;21060;-76
2022/01/14 00:50:40;;;;;;;83.47;32.98;;;;;;;-4.84;77.33;99051.62;1720756;82;21101;-76
2022/01/14 00:53:05;;;;;;;74.22;31.70;;;;;;;-4.84;77.09;99046.45;1750008;82;21506;-76
2022/01/14 00:55:45;;;;;;;85.55;34.85;;;;;;;-4.76;76.51;99034.79;1750138;82;21032;-76
2022/01/14 01:00:35;;;;;;;72.70;31.70;;;;;;;-4.73;76.91;99016.84;1769250;81;21063;-76
2022/01/14 01:03:03;;;;;;;80.77;33.02;;;;;;;-4.67;76.42;99019.72;1776824;80;21032;-76
2022/01/14 01:05:30;;;;;;;85.12;31.37;;;;;;;-4.60;76.15;99009.66;1793451;80;21047;-76
2022/01/14 01:08:11;;;;;;;85.60;33.28;;;;;;;-4.54;76.06;99014.71;1775065;80;21035;-76
2022/01/14 01:10:26;;;;;;;75.83;31.82;;;;;;;-4.48;75.83;99019.30;1766747;81;21083;-76
2022/01/14 01:12:57;;;;;;;82.85;33.98;;;;;;;-4.44;75.87;99004.80;1769039;81;21438;-76
2022/01/14 01:15:21;;;;;;;76.22;31.62;;;;;;;-4.42;75.71;99007.94;1768779;81;21011;-75
2022/01/14 01:17:49;;;;;;;79.92;32.28;;;;;;;-4.45;75.73;98989.67;1769369;81;20991;-75
2022/01/14 01:20:18;;;;;;;77.75;31.65;;;;;;;-4.48;75.67;98980.88;1784807;80;21324;-75
2022/01/14 01:22:48;;;;;;;79.05;33.48;;;;;;;-4.47;75.76;98987.83;1793566;80;21445;-76
2022/01/14 01:25:21;;;;;;;83.27;33.40;;;;;;;-4.48;75.77;98980.48;1793589;80;21052;-76
2022/01/14 01:27:47;;;;;;;73.72;30.00;;;;;;;-4.46;75.65;98969.79;1774634;80;21481;-76
2022/01/14 01:30:48;;;;;;;76.97;30.88;;;;;;;-4.45;75.77;98968.97;1764014;81;21414;-75
2022/01/14 01:32:48;;;;;;;76.05;31.30;;;;;;;-4.46;75.58;98959.83;1773125;80;21445;-75
2022/01/14 01:35:16;;;;;;;80.77;31.50;;;;;;;-4.47;75.40;98964.53;1779232;80;21007;-76
2022/01/14 01:37:42;;;;;;;78.65;32.40;;;;;;;-4.46;75.52;98955.55;1770999;80;21019;-75
2022/01/14 01:40:14;;;;;;;78.97;30.52;;;;;;;-4.44;75.60;98954.34;1745388;80;21024;-76
2022/01/14 01:42:44;;;;;;;72.35;29.75;;;;;;;-4.40;75.41;98951.95;1729573;83;21016;-75
2022/01/14 01:45:19;;;;;;;72.90;29.60;;;;;;;-4.35;75.34;98955.16;1738074;81;21024;-75
2022/01/14 01:47:44;;;;;;;72.30;30.45;;;;;;;-4.35;75.22;98958.64;1763728;81;21292;-76
2022/01/14 01:50:15;;;;;;;81.08;31.57;;;;;;;-4.30;75.31;98961.03;1763939;81;21075;-75
2022/01/14 01:52:42;;;;;;;77.03;29.40;;;;;;;-4.21;75.24;98960.55;1763986;81;21417;-75
2022/01/14 01:55:09;;;;;;;81.40;32.83;;;;;;;-4.21;75.09;98951.49;1764156;81;20968;-75
2022/01/14 01:57:36;;;;;;;70.92;29.35;;;;;;;-4.20;75.05;98939.02;1767642;80;20973;-75
2022/01/14 02:00:07;;;;;;;78.57;29.15;;;;;;;-4.17;75.20;98941.76;1793683;80;21059;-75
2022/01/14 02:02:37;;;;;;;75.60;31.05;;;;;;;-4.13;75.12;98925.94;1792387;80;21106;-75
2022/01/14 02:05:06;;;;;;;70.70;30.25;;;;;;;-4.11;75.23;98905.77;1765344;80;21067;-76
2022/01/14 02:07:33;;;;;;;73.22;30.10;;;;;;;-4.07;74.96;98900.31;1763797;81;21473;-76
2022/01/14 02:10:00;;;;;;;73.62;30.25;;;;;;;-4.04;75.04;98893.98;1763944;81;20992;-76
2022/01/14 02:12:36;;;;;;;78.75;30.68;;;;;;;-4.03;74.91;98887.98;1763997;81;21023;-76
2022/01/14 02:15:12;;;;;;;75.52;31.27;;;;;;;-4.00;74.90;98885.53;1768234;81;20984;-76
2022/01/14 02:23:07;;;;;;;68.33;28.70;;;;;;;-3.97;74.69;98865.36;1768759;81;21016;-76
2022/01/14 02:25:35;;;;;;;68.35;28.52;;;;;;;-3.99;74.62;98869.17;1773377;80;21292;-76
2022/01/14 02:28:09;;;;;;;80.62;31.52;;;;;;;-3.95;74.77;98861.55;1770631;80;20976;-76
2022/01/14 02:30:43;;;;;;;69.07;29.85;;;;;;;-3.93;74.79;98860.79;1761141;81;21040;-76
2022/01/14 02:33:09;;;;;;;67.47;29.00;;;;;;;-3.89;74.86;98856.22;1759990;81;20985;-76
2022/01/14 02:35:38;;;;;;;73.35;31.10;;;;;;;-3.85;74.60;98853.34;1783811;80;21039;-76
2022/01/14 02:38:04;;;;;;;83.03;31.85;;;;;;;-3.88;74.69;98867.05;1785695;80;21012;-76
2022/01/14 02:40:30;;;;;;;78.17;32.75;;;;;;;-3.82;74.74;98853.45;1785632;80;20992;-76
2022/01/14 02:43:00;;;;;;;70.10;29.87;;;;;;;-3.82;74.44;98862.94;1785637;80;21422;-76
2022/01/14 02:45:31;;;;;;;69.03;29.48;;;;;;;-3.85;74.61;98869.74;1761312;79;20984;-76
2022/01/14 02:47:57;;;;;;;81.53;32.23;;;;;;;-3.82;74.64;98872.87;1763583;81;21040;-76
2022/01/14 02:50:25;;;;;;;73.52;31.48;;;;;;;-3.82;74.46;98873.30;1769098;81;21027;-76
2022/01/14 02:55:22;;;;;;;75.08;29.85;;;;;;;-3.93;74.53;98871.55;1761686;81;20960;-76
2022/01/14 02:57:52;;;;;;;80.25;32.33;;;;;;;-3.91;74.82;98872.52;1760998;81;20985;-76
2022/01/14 03:00:22;;;;;;;81.10;32.88;;;;;;;-3.89;74.94;98861.40;1760858;81;21456;-76
2022/01/14 03:02:51;;;;;;;90.50;35.98;;;;;;;-3.85;74.89;98857.22;1765440;81;21012;-76
2022/01/14 03:05:21;;;;;;;82.62;34.27;;;;;;;-3.86;75.33;98864.53;1768967;81;20995;-76
2022/01/14 03:07:48;;;;;;;83.45;35.15;;;;;;;-3.85;74.99;98854.20;1768832;81;21386;-76
2022/01/14 03:10:17;;;;;;;91.90;34.40;;;;;;;-3.85;75.07;98846.44;1768476;81;21515;-76
2022/01/14 03:12:45;;;;;;;94.25;36.65;;;;;;;-3.82;75.04;98847.41;1765761;81;21016;-76
2022/01/14 03:15:15;;;;;;;92.82;37.13;;;;;;;-3.78;75.04;98838.52;1763288;81;20964;-76
2022/01/14 03:17:43;;;;;;;94.42;36.73;;;;;;;-3.79;75.04;98843.22;1763654;81;21434;-76
2022/01/14 03:20:26;;;;;;;90.30;37.08;;;;;;;-3.78;74.95;98846.71;1763791;81;21473;-76
2022/01/14 03:22:42;;;;;;;83.80;32.93;;;;;;;-3.80;74.95;98839.27;1756242;80;21099;-76
2022/01/14 03:27:54;;;;;;;83.82;35.28;;;;;;;-3.75;74.91;98836.06;1752509;81;21012;-76
2022/01/14 03:30:21;;;;;;;88.10;35.43;;;;;;;-3.72;74.96;98839.19;1752606;82;20949;-76
2022/01/14 03:32:47;;;;;;;86.40;34.70;;;;;;;-3.70;74.89;98831.05;1751579;81;21477;-76
2022/01/14 03:35:14;;;;;;;86.45;33.98;;;;;;;-3.70;74.85;98829.75;1758514;81;21017;-76
2022/01/14 03:37:40;;;;;;;88.17;34.35;;;;;;;-3.69;74.62;98834.54;1760780;81;21005;-75
2022/01/14 03:40:09;;;;;;;84.75;34.73;;;;;;;-3.68;74.82;98841.48;1760875;81;21018;-76
2022/01/14 03:42:35;;;;;;;85.00;34.33;;;;;;;-3.68;74.69;98843.67;1757102;81;21448;-76
2022/01/14 03:45:02;;;;;;;80.20;34.23;;;;;;;-3.67;74.69;98838.97;1752568;82;21060;-76
2022/01/14 03:47:29;;;;;;;83.20;34.63;;;;;;;-3.63;74.73;98843.45;1752598;81;21020;-76
2022/01/14 03:49:56;;;;;;;75.10;32.98;;;;;;;-3.64;74.73;98841.69;1752467;82;21024;-76
2022/01/14 03:52:22;;;;;;;85.22;33.28;;;;;;;-3.66;74.66;98848.50;1751950;81;21458;-76
2022/01/14 03:54:49;;;;;;;75.67;32.10;;;;;;;-3.66;74.75;98854.11;1750501;82;20989;-76
2022/01/14 03:57:16;;;;;;;81.92;31.60;;;;;;;-3.67;74.89;98845.84;1750301;82;20988;-76
2022/01/14 03:59:42;;;;;;;74.90;31.57;;;;;;;-3.69;74.79;98844.51;1750409;82;21064;-76
2022/01/14 04:02:09;;;;;;;81.80;32.80;;;;;;;-3.68;74.85;98847.96;1751814;82;21055;-76
2022/01/14 04:04:35;;;;;;;74.22;32.33;;;;;;;-3.70;74.99;98838.82;1757805;81;20997;-76
2022/01/14 04:07:02;;;;;;;79.75;33.25;;;;;;;-3.67;75.10;98845.84;1758018;82;21004;-76
2022/01/14 04:09:29;;;;;;;77.27;30.27;;;;;;;-3.69;75.22;98834.14;1758118;81;21001;-76
2022/01/14 04:12:00;;;;;;;67.90;29.90;;;;;;;-3.69;75.20;98835.84;1757378;81;21016;-76
2022/01/14 04:16:51;;;;;;;71.62;28.87;;;;;;;-3.72;75.39;98852.14;1750154;81;21032;-76
2022/01/14 04:19:18;;;;;;;71.90;27.58;;;;;;;-3.73;75.07;98851.23;1750306;81;21470;-76
2022/01/14 04:21:45;;;;;;;71.60;27.20;;;;;;;-3.74;75.17;98850.77;1750187;81;21036;-76
2022/01/14 04:24:11;;;;;;;73.70;28.05;;;;;;;-3.74;75.34;98853.36;1757952;82;21027;-76
2022/01/14 04:26:38;;;;;;;66.82;28.30;;;;;;;-3.74;75.59;98839.55;1757468;81;21473;-76
2022/01/14 04:29:04;;;;;;;69.37;28.07;;;;;;;-3.73;75.75;98827.06;1746721;81;21016;-76
2022/01/14 04:31:31;;;;;;;71.97;27.55;;;;;;;-3.73;75.37;98812.38;1755771;81;20984;-76
2022/01/14 04:33:57;;;;;;;65.45;26.25;;;;;;;-3.71;75.55;98812.05;1758011;81;20989;-76
2022/01/14 04:36:24;;;;;;;69.05;28.45;;;;;;;-3.72;75.54;98815.88;1760875;81;21091;-76
2022/01/14 04:38:50;;;;;;;67.47;27.70;;;;;;;-3.66;75.48;98817.41;1755426;81;21489;-76
2022/01/14 04:41:17;;;;;;;70.30;27.98;;;;;;;-3.64;75.39;98805.81;1750214;81;21017;-76
2022/01/14 04:43:43;;;;;;;77.10;30.50;;;;;;;-3.65;75.55;98807.51;1756416;82;21040;-76
2022/01/14 04:48:38;;;;;;;62.25;26.42;;;;;;;-3.58;75.59;98792.70;1757285;80;21036;-76
2022/01/14 04:51:10;;;;;;;70.60;28.75;;;;;;;-3.58;75.18;98791.41;1759752;81;21070;-76
2022/01/14 04:53:38;;;;;;;66.53;27.58;;;;;;;-3.58;75.34;98778.45;1758152;81;20988;-76
2022/01/14 04:56:05;;;;;;;70.28;26.90;;;;;;;-3.53;75.49;98769.97;1757759;82;21063;-75
2022/01/14 04:58:33;;;;;;;68.62;28.62;;;;;;;-3.51;75.49;98768.31;1757693;81;21406;-76
2022/01/14 05:00:59;;;;;;;66.00;26.65;;;;;;;-3.51;75.03;98767.91;1756190;81;21406;-76
2022/01/14 05:03:26;;;;;;;69.37;26.95;;;;;;;-3.54;75.20;98760.01;1757940;82;21184;-76
2022/01/14 05:05:56;;;;;;;70.35;28.77;;;;;;;-3.53;75.20;98757.88;1730097;82;20976;-76
2022/01/14 05:08:25;;;;;;;74.75;30.17;;;;;;;-3.51;75.31;98760.14;1757642;81;21524;-76
2022/01/14 05:11:03;;;;;;;71.37;27.93;;;;;;;-3.49;75.33;98749.84;1750062;81;21016;-76
2022/01/14 05:13:17;;;;;;;65.05;27.27;;;;;;;-3.47;75.39;98761.14;1748887;81;20989;-76
2022/01/14 05:15:44;;;;;;;68.62;26.97;;;;;;;-3.46;75.39;98761.20;1750118;81;21040;-76
2022/01/14 05:18:10;;;;;;;66.57;27.45;;;;;;;-3.43;75.39;98761.73;1749707;81;21060;-76
2022/01/14 05:20:37;;;;;;;64.45;27.20;;;;;;;-3.38;75.22;98751.13;1752075;82;21462;-76
2022/01/14 05:23:04;;;;;;;69.22;26.80;;;;;;;-3.40;75.08;98757.08;1757379;81;21166;-76
2022/01/14 05:25:31;;;;;;;73.37;28.52;;;;;;;-3.45;75.18;98762.06;1760948;81;21063;-76
2022/01/14 05:27:57;;;;;;;68.40;27.87;;;;;;;-3.43;75.11;98756.95;1760685;81;21039;-76
2022/01/14 05:30:25;;;;;;;67.10;26.90;;;;;;;-3.44;75.59;98758.67;1766037;81;20999;-76
2022/01/14 05:32:54;;;;;;;65.47;27.32;;;;;;;-3.39;75.36;98754.95;1757822;81;21382;-76
2022/01/14 05:35:24;;;;;;;77.42;29.40;;;;;;;-3.43;75.06;98741.00;1751549;80;21029;-76
2022/01/14 05:37:51;;;;;;;67.15;27.48;;;;;;;-3.42;75.19;98744.45;1765702;81;21011;-77
2022/01/14 05:40:21;;;;;;;69.53;26.57;;;;;;;-3.40;75.07;98737.64;1763240;81;21032;-77
2022/01/14 05:42:48;;;;;;;71.50;27.22;;;;;;;-3.43;75.34;98738.80;1763878;81;21401;-76
2022/01/14 05:45:16;;;;;;;73.22;27.42;;;;;;;-3.38;75.37;98740.77;1764034;81;21016;-76
2022/01/14 05:47:43;;;;;;;73.78;28.60;;;;;;;-3.35;75.42;98737.40;1764025;81;21068;-76
2022/01/14 05:50:15;;;;;;;67.27;27.62;;;;;;;-3.36;75.29;98742.13;1761834;81;21048;-76
2022/01/14 05:52:42;;;;;;;64.00;27.00;;;;;;;-3.34;75.10;98738.77;1760611;81;20984;-77
2022/01/14 05:55:12;;;;;;;68.95;28.15;;;;;;;-3.35;75.17;98752.55;1760579;81;20988;-77
2022/01/14 05:57:40;;;;;;;63.20;27.87;;;;;;;-3.36;75.09;98750.77;1761137;81;20979;-77
2022/01/14 06:00:14;;;;;;;67.62;26.27;;;;;;;-3.37;75.28;98752.03;1762365;81;20956;-77
2022/01/14 06:02:45;;;;;;;71.30;28.95;;;;;;;-3.37;75.37;98756.77;1764091;81;21445;-77
2022/01/14 06:05:12;;;;;;;62.67;24.80;;;;;;;-3.34;75.35;98756.91;1764123;81;21410;-77
2022/01/14 06:07:39;;;;;;;65.10;27.02;;;;;;;-3.35;75.21;98749.96;1764070;81;20968;-77
2022/01/14 06:10:07;;;;;;;68.57;27.85;;;;;;;-3.38;75.33;98747.23;1766955;81;20980;-77
2022/01/14 06:12:34;;;;;;;70.65;26.75;;;;;;;-3.39;75.41;98750.66;1768812;81;21063;-77
2022/01/14 06:15:01;;;;;;;69.62;27.40;;;;;;;-3.37;75.59;98739.92;1768871;81;21524;-77
2022/01/14 06:17:27;;;;;;;67.70;27.40;;;;;;;-3.33;75.45;98733.14;1768515;81;20996;-76
2022/01/14 06:19:54;;;;;;;76.82;27.02;;;;;;;-3.32;75.68;98729.75;1766157;81;21054;-77
2022/01/14 06:22:20;;;;;;;68.12;27.73;;;;;;;-3.34;75.26;98737.86;1761596;81;21013;-76
2022/01/14 06:24:47;;;;;;;71.70;29.15;;;;;;;-3.35;75.18;98738.70;1750209;82;20977;-77
2022/01/14 06:27:13;;;;;;;69.32;28.17;;;;;;;-3.38;75.42;98741.16;1750262;82;21031;-77
2022/01/14 06:29:40;;;;;;;97.62;38.08;;;;;;;-3.39;75.46;98736.80;1752906;82;21015;-77
2022/01/14 06:32:07;;;;;;;67.40;28.40;;;;;;;-3.39;75.40;98735.52;1755201;80;21003;-76
2022/01/14 06:34:33;;;;;;;60.52;26.87;;;;;;;-3.39;75.55;98725.14;1747118;81;21015;-76
2022/01/14 06:37:00;;;;;;;68.60;27.80;;;;;;;-3.39;75.68;98728.63;1755295;81;21039;-75
2022/01/14 06:39:27;;;;;;;69.87;27.17;;;;;;;-3.34;75.85;98733.58;1752249;81;21115;-75
2022/01/14 06:41:54;;;;;;;67.80;27.05;;;;;;;-3.31;76.13;98726.33;1753239;80;21024;-75
2022/01/14 06:44:20;;;;;;;65.60;28.65;;;;;;;-3.27;75.90;98714.36;1748538;82;21056;-77
2022/01/14 06:46:47;;;;;;;74.50;28.92;;;;;;;-3.21;75.99;98718.06;1752595;82;21091;-76
2022/01/14 06:49:13;;;;;;;69.97;29.07;;;;;;;-3.19;75.91;98709.91;1750006;81;21529;-75
2022/01/14 06:51:40;;;;;;;68.25;28.23;;;;;;;-3.19;75.48;98715.10;1749339;81;21012;-74
2022/01/14 06:54:06;;;;;;;66.02;28.92;;;;;;;-3.20;75.70;98716.37;1749657;81;21103;-74
2022/01/14 06:56:33;;;;;;;69.45;29.40;;;;;;;-3.18;75.98;98716.00;1749619;81;21434;-74
2022/01/14 06:58:59;;;;;;;63.75;27.80;;;;;;;-3.13;76.33;98725.23;1746402;81;20948;-75
2022/01/14 07:01:26;;;;;;;71.25;29.48;;;;;;;-3.12;76.20;98714.92;1747405;81;20997;-75
2022/01/14 07:03:53;;;;;;;72.17;29.67;;;;;;;-3.08;76.10;98715.91;1756607;81;21080;-74
2022/01/14 07:06:19;;;;;;;70.32;29.42;;;;;;;-3.07;76.31;98708.62;1753310;81;21024;-74
2022/01/14 07:08:46;;;;;;;68.75;30.25;;;;;;;-3.03;76.09;98703.13;1752701;81;20973;-74
2022/01/14 07:11:12;;;;;;;76.53;27.85;;;;;;;-3.01;76.30;98691.98;1753383;81;21008;-75
2022/01/14 07:13:39;;;;;;;70.15;29.12;;;;;;;-3.00;76.19;98688.98;1730850;81;20988;-75
2022/01/14 07:16:06;;;;;;;66.65;28.77;;;;;;;-2.99;76.43;98681.23;1756304;81;21000;-75
2022/01/14 07:18:33;;;;;;;67.95;27.98;;;;;;;-2.96;76.29;98680.45;1750254;82;21062;-75
2022/01/14 07:20:59;;;;;;;67.60;29.15;;;;;;;-2.93;76.49;98672.80;1750039;82;21017;-75
2022/01/14 07:23:26;;;;;;;66.33;28.70;;;;;;;-2.89;75.99;98666.00;1758885;80;21135;-75
2022/01/14 07:25:53;;;;;;;70.70;29.18;;;;;;;-2.87;76.14;98661.33;1777307;80;20921;-75
2022/01/14 07:28:19;;;;;;;64.20;29.12;;;;;;;-2.84;76.12;98666.64;1766988;80;21422;-74
2022/01/14 07:30:46;;;;;;;75.35;30.30;;;;;;;-2.80;76.05;98660.73;1764612;81;20983;-75
2022/01/14 07:33:12;;;;;;;62.48;25.90;;;;;;;-2.81;76.21;98661.57;1764184;81;21012;-75
2022/01/14 07:35:40;;;;;;;69.72;30.10;;;;;;;-2.80;76.10;98649.45;1764465;81;21364;-74
2022/01/14 07:38:06;;;;;;;69.42;29.15;;;;;;;-2.76;75.99;98651.33;1763968;81;21457;-75
2022/01/14 07:40:32;;;;;;;68.37;29.63;;;;;;;-2.77;76.24;98658.66;1771185;80;20980;-73
2022/01/14 07:42:59;;;;;;;69.97;30.02;;;;;;;-2.73;76.30;98654.05;1793410;80;21067;-75
2022/01/14 07:45:25;;;;;;;75.00;30.40;;;;;;;-2.69;76.02;98654.59;1772003;80;21464;-75
2022/01/14 07:47:52;;;;;;;75.47;31.40;;;;;;;-2.72;75.75;98644.53;1761696;81;21009;-76
2022/01/14 07:50:18;;;;;;;79.92;32.10;;;;;;;-2.71;75.99;98634.61;1757113;81;21492;-75
2022/01/14 07:52:45;;;;;;;76.62;30.35;;;;;;;-2.70;75.76;98642.45;1757415;81;21079;-75
2022/01/14 07:55:11;;;;;;;81.12;32.55;;;;;;;-2.77;76.37;98632.71;1759798;81;20989;-75
2022/01/14 07:57:38;;;;;;;78.40;32.53;;;;;;;-2.80;76.66;98617.03;1763158;81;21000;-75
2022/01/14 08:00:07;;;;;;;79.17;32.05;;;;;;;-2.77;76.53;98622.33;1764203;81;20984;-75
2022/01/14 08:02:34;;;;;;;76.57;32.63;;;;;;;-2.74;76.25;98621.55;1764080;81;21067;-75
2022/01/14 08:05:01;;;;;;;76.90;32.33;;;;;;;-2.74;75.96;98615.93;1764116;81;21055;-76
2022/01/14 08:07:29;;;;;;;78.37;32.17;;;;;;;-2.77;76.04;98620.14;1777509;80;20964;-75
2022/01/14 08:09:56;;;;;;;78.72;34.25;;;;;;;-2.73;76.18;98623.31;1788550;80;21007;-75
2022/01/14 08:12:22;;;;;;;83.60;32.40;;;;;;;-2.72;76.56;98620.78;1782602;80;20964;-76
2022/01/14 08:14:49;;;;;;;75.67;32.50;;;;;;;-2.68;76.66;98618.76;1777756;80;21032;-75
2022/01/14 08:17:18;;;;;;;79.97;32.55;;;;;;;-2.62;76.19;98625.84;1764025;81;21487;-75
2022/01/14 08:19:44;;;;;;;76.17;31.90;;;;;;;-2.63;76.18;98616.73;1776553;80;21481;-75
2022/01/14 08:22:11;;;;;;;82.42;35.10;;;;;;;-2.65;76.20;98624.03;1792964;80;21028;-76
2022/01/14 08:24:38;;;;;;;82.80;33.02;;;;;;;-2.62;76.85;98625.84;1785746;80;21511;-76
2022/01/14 08:27:07;;;;;;;79.72;33.63;;;;;;;-2.59;76.75;98623.77;1801565;80;20991;-76
2022/01/14 08:29:33;;;;;;;85.87;34.98;;;;;;;-2.57;76.67;98617.79;1793491;80;21266;-76
2022/01/14 08:32:01;;;;;;;84.13;35.00;;;;;;;-2.53;76.43;98607.98;1799440;80;21023;-76
2022/01/14 08:34:27;;;;;;;81.17;35.45;;;;;;;-2.48;76.64;98610.75;1777060;79;20972;-76
2022/01/14 08:36:54;;;;;;;91.17;36.25;;;;;;;-2.40;76.53;98613.15;1769177;81;21063;-76
2022/01/14 08:39:20;;;;;;;84.65;36.10;;;;;;;-2.34;76.44;98616.38;1771216;79;21497;-77
2022/01/14 08:41:48;;;;;;;86.15;35.63;;;;;;;-2.34;76.66;98626.76;1780782;79;20980;-75
2022/01/14 08:44:15;;;;;;;88.03;37.83;;;;;;;-2.32;76.46;98614.70;1798989;80;21035;-75
2022/01/14 08:46:42;;;;;;;89.75;36.58;;;;;;;-2.24;76.70;98626.66;1783677;79;21036;-75
2022/01/14 08:49:10;;;;;;;83.70;35.05;;;;;;;-2.18;76.37;98616.86;1807140;79;21071;-75
2022/01/14 08:51:38;;;;;;;84.72;34.90;;;;;;;-2.13;76.19;98620.07;1806742;79;21116;-75
2022/01/14 08:54:07;;;;;;;95.17;38.20;;;;;;;-2.12;76.37;98620.53;1807197;79;22139;-75
2022/01/14 08:56:34;;;;;;;85.83;37.75;;;;;;;-2.05;76.32;98611.63;1807022;79;21000;-75
2022/01/14 08:59:01;;;;;;;93.00;38.38;;;;;;;-2.01;76.46;98609.59;1771161;79;21038;-75
2022/01/14 09:01:28;;;;;;;82.12;35.17;;;;;;;-2.00;76.33;98607.45;1776302;80;20991;-75
2022/01/14 09:03:56;;;;;;;83.30;33.65;;;;;;;-1.92;76.17;98596.88;1778587;79;21135;-75
2022/01/14 09:06:22;;;;;;;80.12;35.55;;;;;;;-1.86;76.23;98601.39;1785840;79;21023;-74
2022/01/14 09:08:49;;;;;;;85.77;34.95;;;;;;;-1.80;76.21;98596.77;1789434;80;21646;-75
2022/01/14 09:11:16;;;;;;;78.67;33.95;;;;;;;-1.75;75.98;98597.79;1801619;80;21075;-75
2022/01/14 09:13:43;;;;;;;91.65;35.20;;;;;;;-1.80;75.79;98595.48;1797932;80;20978;-75
2022/01/14 09:16:10;;;;;;;82.60;35.10;;;;;;;-1.80;75.93;98582.48;1785955;79;21051;-75
2022/01/14 09:18:36;;;;;;;80.65;34.18;;;;;;;-1.86;75.93;98586.66;1790511;79;21393;-75
2022/01/14 09:21:04;;;;;;;86.05;34.73;;;;;;;-1.88;75.88;98578.36;1775245;79;20979;-76
2022/01/14 09:23:33;;;;;;;79.67;34.20;;;;;;;-1.81;75.86;98566.44;1773246;79;20973;-77
2022/01/14 09:25:59;;;;;;;77.90;32.40;;;;;;;-1.75;75.75;98566.61;1764242;80;20977;-77
2022/01/14 09:28:25;;;;;;;82.20;33.78;;;;;;;-1.72;75.72;98566.70;1770478;80;21001;-77
2022/01/14 09:30:52;;;;;;;76.80;34.23;;;;;;;-1.69;75.64;98549.02;1767557;80;21007;-77
2022/01/14 09:33:18;;;;;;;74.65;29.70;;;;;;;-1.68;75.52;98550.37;1757942;80;20954;-77
2022/01/14 09:35:46;;;;;;;74.25;31.90;;;;;;;-1.69;75.34;98542.12;1762410;80;21038;-77
2022/01/14 09:38:14;;;;;;;75.12;30.82;;;;;;;-1.65;75.31;98541.38;1767927;80;21644;-77
2022/01/14 09:40:46;;;;;;;67.05;28.87;;;;;;;-1.61;75.46;98542.33;1769348;80;20996;-77
2022/01/14 09:43:14;;;;;;;73.05;28.65;;;;;;;-1.54;75.30;98527.79;1770743;80;21017;-77
2022/01/14 09:45:41;;;;;;;70.47;29.15;;;;;;;-1.51;75.16;98526.55;1768256;80;21003;-77
2022/01/14 09:48:07;;;;;;;69.37;29.75;;;;;;;-1.52;74.85;98517.00;1759192;80;21369;-77
2022/01/14 09:50:34;;;;;;;66.70;31.00;;;;;;;-1.51;74.96;98507.95;1766993;80;20977;-77
2022/01/14 09:53:01;;;;;;;72.17;30.88;;;;;;;-1.47;74.71;98495.50;1772767;80;21047;-77
2022/01/14 09:55:28;;;;;;;65.90;30.32;;;;;;;-1.50;74.17;98488.05;1764562;80;20957;-77
2022/01/14 09:57:55;;;;;;;65.45;28.80;;;;;;;-1.63;74.23;98479.01;1767468;80;21064;-77
2022/01/14 10:00:22;;;;;;;70.05;27.75;;;;;;;-1.66;74.53;98476.34;1762293;80;20999;-77
2022/01/14 10:02:51;;;;;;;66.85;28.55;;;;;;;-1.59;74.94;98473.05;1759394;80;20988;-77
2022/01/14 10:05:34;;;;;;;66.82;28.05;;;;;;;-1.46;75.04;98480.35;1760071;80;21385;-77
2022/01/14 10:08:17;;;;;;;63.52;26.77;;;;;;;-1.40;74.73;98473.14;1763087;80;21055;-76
2022/01/14 10:10:59;;;;;;;65.10;29.23;;;;;;;-1.36;74.28;98467.16;1764461;80;21514;-75
2022/01/14 10:13:34;;;;;;;67.72;27.73;;;;;;;-1.35;74.35;98462.44;1760904;80;21024;-75
2022/01/14 10:16:08;;;;;;;70.47;29.60;;;;;;;-1.28;74.44;98460.87;1765848;80;21008;-76
2022/01/14 10:18:38;;;;;;;64.30;28.60;;;;;;;-1.26;74.14;98451.38;1762911;80;21506;-75
2022/01/14 10:21:07;;;;;;;69.85;29.15;;;;;;;-1.23;74.18;98446.27;1772952;80;20996;-75
2022/01/14 10:23:51;;;;;;;71.55;31.00;;;;;;;-1.21;74.24;98436.77;1763770;80;21053;-75
2022/01/14 10:26:18;;;;;;;74.32;31.23;;;;;;;-1.13;73.82;98434.80;1752722;81;21034;-75
2022/01/14 10:28:57;;;;;;;72.87;30.72;;;;;;;-1.17;74.04;98436.42;1748339;82;21513;-75
2022/01/14 10:31:37;;;;;;;65.32;27.77;;;;;;;-1.09;74.09;98437.90;1741825;81;20989;-76
2022/01/14 10:34:17;;;;;;;71.35;30.40;;;;;;;-1.07;73.37;98420.63;1754372;81;21399;-76
2022/01/14 10:36:46;;;;;;;74.27;31.82;;;;;;;-1.04;73.52;98418.52;1752280;81;20985;-75
2022/01/14 10:39:27;;;;;;;69.60;29.20;;;;;;;-1.08;73.43;98413.67;1754525;81;21086;-76
2022/01/14 10:41:56;;;;;;;67.85;31.00;;;;;;;-1.04;73.90;98408.97;1754072;81;21352;-75
2022/01/14 10:44:30;;;;;;;76.90;30.43;;;;;;;-0.93;74.00;98398.83;1753373;81;21455;-75
2022/01/14 10:47:22;;;;;;;77.65;31.80;;;;;;;-0.89;73.76;98391.55;1755962;81;21432;-75
2022/01/14 10:49:53;;;;;;;74.45;32.55;;;;;;;-0.86;73.59;98386.43;1751433;81;21458;-75
2022/01/14 10:52:23;;;;;;;75.52;30.27;;;;;;;-0.81;73.54;98393.02;1755517;81;20997;-75
2022/01/14 10:54:54;;;;;;;71.37;31.10;;;;;;;-0.74;73.56;98390.14;1752092;81;21163;-76
2022/01/14 10:57:29;;;;;;;71.07;31.23;;;;;;;-0.71;73.39;98380.66;1750508;81;21004;-76
2022/01/14 11:00:19;;;;;;;69.47;30.92;;;;;;;-0.65;72.90;98391.64;1751731;81;21027;-76
2022/01/14 11:02:48;;;;;;;71.80;29.95;;;;;;;-0.65;73.08;98388.15;1751520;81;21002;-75
2022/01/14 11:05:22;;;;;;;71.60;30.27;;;;;;;-0.60;73.32;98383.51;1750824;81;21007;-76
2022/01/14 11:07:51;;;;;;;73.87;33.05;;;;;;;-0.51;73.25;98383.26;1756934;81;21016;-75
2022/01/14 11:10:26;;;;;;;72.27;30.80;;;;;;;-0.54;72.73;98377.13;1749285;81;20999;-75
2022/01/14 11:12:55;;;;;;;69.40;31.62;;;;;;;-0.51;73.08;98376.75;1751515;81;21040;-77
2022/01/14 11:15:24;;;;;;;73.67;32.42;;;;;;;-0.58;72.41;98379.64;1752711;81;21472;-76
2022/01/14 11:17:55;;;;;;;73.67;33.75;;;;;;;-0.70;72.48;98367.23;1748250;81;21058;-75
2022/01/14 11:20:29;;;;;;;86.00;35.30;;;;;;;-0.64;72.95;98366.47;1749601;82;21079;-74
2022/01/14 11:25:45;;;;;;;76.55;32.48;;;;;;;-0.59;73.04;98356.63;1750692;80;21043;-75
2022/01/14 11:28:17;;;;;;;71.85;31.02;;;;;;;-0.52;73.11;98354.14;1760467;80;21048;-75
2022/01/14 11:30:44;;;;;;;75.75;31.80;;;;;;;-0.54;72.42;98359.34;1765233;80;21031;-76
2022/01/14 11:33:14;;;;;;;72.17;30.20;;;;;;;-0.54;72.26;98345.02;1752346;80;21119;-75
2022/01/14 11:35:40;;;;;;;72.15;29.87;;;;;;;-0.50;72.84;98341.61;1762921;80;20996;-75
2022/01/14 11:38:43;;;;;;;74.03;31.75;;;;;;;-0.45;72.83;98332.16;1766053;80;20959;-74
2022/01/14 11:41:18;;;;;;;75.83;31.33;;;;;;;-0.47;72.58;98331.27;1760788;80;21033;-75
2022/01/14 11:43:55;;;;;;;71.80;31.55;;;;;;;-0.42;72.78;98315.30;1764321;80;20958;-75
2022/01/14 11:46:36;;;;;;;70.72;31.12;;;;;;;-0.39;72.61;98315.78;1768359;80;21017;-75
2022/01/14 11:49:31;;;;;;;74.72;32.63;;;;;;;-0.38;72.75;98312.33;1765088;80;21378;-74
2022/01/14 11:52:01;;;;;;;69.27;29.67;;;;;;;-0.42;72.09;98306.60;1744109;81;21028;-74